Texas City — WDD4983 — position and weather

sailwx.info

Track history (hours):
 
Tides and Currents Weather Stations Pressure Air Temp Water Temp Dewpoint Dewpoint Depression Visibility Wind Speed Wind Dir Waves Ship Positions

Texas City

Owner: Marathon Petroleum Company LP, Findlay, OH. More information available from US FCC via Universal Licensing System and Coast Guard Vessel Documentation Center.

Last reported at 2017-Feb-24 02:26 UTC. Time now 2017-Feb-24 10:37 UTC.
Position N 29°49' W 091°49'.

Length 24 m.

Type: . MMSI: 367135470.

Date/timePositionNaut miles runAvg speedWind from/ knotsBaromVisibWave heightAir tempDewpointWater temp
2017-Feb-24 02:26N 29°49' W 091°49'13 4.1
2017-Feb-23 23:12N 29°48' W 092°05'4 5.2
2017-Feb-23 22:31N 29°47' W 092°08'2 2.4
2017-Feb-23 21:33N 29°47' W 092°11'0 0.0
2017-Feb-23 20:33N 29°47' W 092°11'0 0.0
2017-Feb-23 19:18N 29°47' W 092°11'0 0.0
2017-Feb-23 18:33N 29°47' W 092°11'0 0.0
2017-Feb-23 17:33N 29°47' W 092°11'0 0.0
2017-Feb-23 16:33N 29°47' W 092°11'0 0.0
2017-Feb-23 15:33N 29°47' W 092°11'0 0.0
2017-Feb-23 14:33N 29°47' W 092°11'0 0.0
2017-Feb-23 13:33N 29°47' W 092°11'0 0.0
2017-Feb-23 12:33N 29°47' W 092°11'0 0.1
2017-Feb-23 11:33N 29°47' W 092°11'0 0.0
2017-Feb-23 10:33N 29°47' W 092°11'0 0.0
2017-Feb-23 09:30N 29°47' W 092°11'0 0.2
2017-Feb-23 08:33N 29°47' W 092°11'0 0.4
2017-Feb-23 07:33N 29°47' W 092°12'1 1.2
2017-Feb-23 06:33N 29°47' W 092°13'1 1.4
2017-Feb-23 05:33N 29°48' W 092°14'1 0.6
2017-Feb-23 04:33N 29°48' W 092°15'3 3.5
2017-Feb-23 03:33N 29°50' W 092°18'3 3.4
2017-Feb-23 02:33N 29°51' W 092°22'4 3.6
2017-Feb-23 01:33N 29°53' W 092°25'35 3.7
2017-Feb-22 16:04N 29°56' W 093°06'2 3.3
2017-Feb-22 15:33N 29°56' W 093°08'3 2.9
2017-Feb-22 14:33N 29°58' W 093°11'4 3.6
2017-Feb-22 13:33N 30°00' W 093°14'3 3.5
2017-Feb-22 12:33N 30°03' W 093°16'3 3.4
2017-Feb-22 11:33N 30°06' W 093°18'1 0.7
2017-Feb-22 10:33N 30°06' W 093°19'0 0.0
2017-Feb-22 09:33N 30°06' W 093°19'0 0.0
2017-Feb-22 08:33N 30°06' W 093°19'0 0.0
2017-Feb-22 07:33N 30°06' W 093°19'0 0.0
2017-Feb-22 06:33N 30°06' W 093°19'1 1.0
2017-Feb-22 05:33N 30°05' W 093°20'3 3.2
2017-Feb-22 04:33N 30°04' W 093°23'4 3.9
2017-Feb-22 03:33N 30°04' W 093°27'4 4.1
2017-Feb-22 02:33N 30°04' W 093°32'4 3.8
2017-Feb-22 01:33N 30°04' W 093°37'75 2.7
2017-Feb-20 21:33N 29°36' W 094°57'6 6.1
2017-Feb-20 20:33N 29°42' W 095°00'6 5.7
2017-Feb-20 19:33N 29°46' W 095°05'2 0.8
2017-Feb-20 17:32N 29°47' W 095°04'0 0.0
2017-Feb-20 16:33N 29°47' W 095°04'0 0.0
2017-Feb-20 15:33N 29°47' W 095°04'0 0.0
2017-Feb-20 14:33N 29°47' W 095°04'0 0.1
2017-Feb-20 13:32N 29°47' W 095°04'7 0.4
2017-Feb-19 19:33N 29°45' W 095°11'7 6.5
2017-Feb-19 18:32N 29°47' W 095°04'2 1.7
2017-Feb-19 17:33N 29°46' W 095°05'5 5.0
2017-Feb-19 16:31N 29°45' W 095°11'1 0.4
2017-Feb-19 13:15N 29°44' W 095°12'0 0.0
2017-Feb-19 12:22N 29°44' W 095°12'0 0.0
2017-Feb-19 11:32N 29°44' W 095°12'0 0.0
2017-Feb-19 03:30N 29°44' W 095°12'6 5.5
2017-Feb-19 02:22N 29°46' W 095°05'2 0.9
2017-Feb-19 00:18N 29°47' W 095°04'1 1.5
2017-Feb-18 23:33N 29°46' W 095°05'0 0.0
2017-Feb-18 22:33N 29°46' W 095°05'0 0.0
2017-Feb-18 21:33N 29°46' W 095°05'0 0.0
2017-Feb-18 20:33N 29°46' W 095°05'0 0.0
2017-Feb-18 19:33N 29°46' W 095°05'0 0.0
2017-Feb-18 18:33N 29°46' W 095°05'0 0.0
2017-Feb-18 17:33N 29°46' W 095°05'0 0.0
2017-Feb-18 16:33N 29°46' W 095°05'26 0.6
2017-Feb-16 22:33N 29°22' W 094°55'1 0.2
2017-Feb-16 14:13N 29°22' W 094°53'  
Track history (hours):
 
Tides and Currents Weather Stations Pressure Air Temp Water Temp Dewpoint Dewpoint Depression Visibility Wind Speed Wind Dir Waves Ship Positions

Texas City

Owner: Marathon Petroleum Company LP, Findlay, OH. More information available from US FCC via Universal Licensing System and Coast Guard Vessel Documentation Center.

Last reported at 2017-Feb-24 02:26 UTC. Time now 2017-Feb-24 10:37 UTC.
Position N 29°49' W 091°49'.

Length 24 m.

Type: . MMSI: 367135470.

Date/timePositionNaut miles runAvg speedWind from/ knotsBaromVisibWave heightAir tempDewpointWater temp
2017-Feb-24 02:26N 29°49' W 091°49'13 4.1
2017-Feb-23 23:12N 29°48' W 092°05'4 5.2
2017-Feb-23 22:31N 29°47' W 092°08'2 2.4
2017-Feb-23 21:33N 29°47' W 092°11'0 0.0
2017-Feb-23 20:33N 29°47' W 092°11'0 0.0
2017-Feb-23 19:18N 29°47' W 092°11'0 0.0
2017-Feb-23 18:33N 29°47' W 092°11'0 0.0
2017-Feb-23 17:33N 29°47' W 092°11'0 0.0
2017-Feb-23 16:33N 29°47' W 092°11'0 0.0
2017-Feb-23 15:33N 29°47' W 092°11'0 0.0
2017-Feb-23 14:33N 29°47' W 092°11'0 0.0
2017-Feb-23 13:33N 29°47' W 092°11'0 0.0
2017-Feb-23 12:33N 29°47' W 092°11'0 0.1
2017-Feb-23 11:33N 29°47' W 092°11'0 0.0
2017-Feb-23 10:33N 29°47' W 092°11'0 0.0
2017-Feb-23 09:30N 29°47' W 092°11'0 0.2
2017-Feb-23 08:33N 29°47' W 092°11'0 0.4
2017-Feb-23 07:33N 29°47' W 092°12'1 1.2
2017-Feb-23 06:33N 29°47' W 092°13'1 1.4
2017-Feb-23 05:33N 29°48' W 092°14'1 0.6
2017-Feb-23 04:33N 29°48' W 092°15'3 3.5
2017-Feb-23 03:33N 29°50' W 092°18'3 3.4
2017-Feb-23 02:33N 29°51' W 092°22'4 3.6
2017-Feb-23 01:33N 29°53' W 092°25'35 3.7
2017-Feb-22 16:04N 29°56' W 093°06'2 3.3
2017-Feb-22 15:33N 29°56' W 093°08'3 2.9
2017-Feb-22 14:33N 29°58' W 093°11'4 3.6
2017-Feb-22 13:33N 30°00' W 093°14'3 3.5
2017-Feb-22 12:33N 30°03' W 093°16'3 3.4
2017-Feb-22 11:33N 30°06' W 093°18'1 0.7
2017-Feb-22 10:33N 30°06' W 093°19'0 0.0
2017-Feb-22 09:33N 30°06' W 093°19'0 0.0
2017-Feb-22 08:33N 30°06' W 093°19'0 0.0
2017-Feb-22 07:33N 30°06' W 093°19'0 0.0
2017-Feb-22 06:33N 30°06' W 093°19'1 1.0
2017-Feb-22 05:33N 30°05' W 093°20'3 3.2
2017-Feb-22 04:33N 30°04' W 093°23'4 3.9
2017-Feb-22 03:33N 30°04' W 093°27'4 4.1
2017-Feb-22 02:33N 30°04' W 093°32'4 3.8
2017-Feb-22 01:33N 30°04' W 093°37'75 2.7
2017-Feb-20 21:33N 29°36' W 094°57'6 6.1
2017-Feb-20 20:33N 29°42' W 095°00'6 5.7
2017-Feb-20 19:33N 29°46' W 095°05'2 0.8
2017-Feb-20 17:32N 29°47' W 095°04'0 0.0
2017-Feb-20 16:33N 29°47' W 095°04'0 0.0
2017-Feb-20 15:33N 29°47' W 095°04'0 0.0
2017-Feb-20 14:33N 29°47' W 095°04'0 0.1
2017-Feb-20 13:32N 29°47' W 095°04'7 0.4
2017-Feb-19 19:33N 29°45' W 095°11'7 6.5
2017-Feb-19 18:32N 29°47' W 095°04'2 1.7
2017-Feb-19 17:33N 29°46' W 095°05'5 5.0
2017-Feb-19 16:31N 29°45' W 095°11'1 0.4
2017-Feb-19 13:15N 29°44' W 095°12'0 0.0
2017-Feb-19 12:22N 29°44' W 095°12'0 0.0
2017-Feb-19 11:32N 29°44' W 095°12'0 0.0
2017-Feb-19 03:30N 29°44' W 095°12'6 5.5
2017-Feb-19 02:22N 29°46' W 095°05'2 0.9
2017-Feb-19 00:18N 29°47' W 095°04'1 1.5
2017-Feb-18 23:33N 29°46' W 095°05'0 0.0
2017-Feb-18 22:33N 29°46' W 095°05'0 0.0
2017-Feb-18 21:33N 29°46' W 095°05'0 0.0
2017-Feb-18 20:33N 29°46' W 095°05'0 0.0
2017-Feb-18 19:33N 29°46' W 095°05'0 0.0
2017-Feb-18 18:33N 29°46' W 095°05'0 0.0
2017-Feb-18 17:33N 29°46' W 095°05'0 0.0
2017-Feb-18 16:33N 29°46' W 095°05'26 0.6
2017-Feb-16 22:33N 29°22' W 094°55'1 0.2
2017-Feb-16 14:13N 29°22' W 094°53'  

Dump ship's entire track history